Gore Bay Manitoulin Airport
CYZE : rendu visible

Aérodrome :











RETROUVEZ-NOUS SUR...

 
LOGIN :

S'inscrire | Disclaimer

   EN    FR    IT 

 









Légende :    VFR   VFR Marginal   IFR   IFR Intensif   IFR Très Intensif
Visi : 
Plafond : 
>= 8 km
>= 3000ft
5 à 8 km
1000 à 3000 ft
1500m à 5 km
500 à 1000 ft
800 à 1500m
200 à 500 ft
< 800m
< 200 ft
Symboles :   Orages  Brouillard  Fortes neiges  Fortes précipitations  Vent > 20 kt






- Altitude de l'aérodrome : 635 ft
- Code IATA : YZE


CYZE - Gore Bay Manitoulin

DERNIER METAR :
  • 250600Z AUTO 03010KT 9SM CLR M02/M05 A2996 RMK SLP155

METARs EXPIRÉS :
  • 250500Z AUTO 03011KT 9SM SCT180 M01/M04 A2996 RMK SLP155
  • 250400Z AUTO 02011KT 9SM BKN190 BKN210 M00/M03 A2995 RMK SLP153
  • 250348Z AUTO 02010KT 9SM BKN200 M00/M03 A2995 RMK WSHFT AT 0335Z SLP153

Prévision TAF périmée.



MET'MAP, la Météo Aéronautique d'un coup d'oeil ! - Copyright ORBIFLY Décembre 2007 - Disclaimer

ORBIFLY MET'MAP TEAM :

Programmation & Développement : Alexandra Zaïnal
Sur une idée originale de : Baudouin d'Aumeries
Assistance à la programmation : Marc-Olivier Méhu
Soutien technique & logistique : Manuel Goepfert

Contact : metmap@orbifly.com




SOURCES & CREDITS :

   NOAA       Earth
Advisory